Big Piney, WY weather

Big Piney-Marbleton Airport (AMOS), Big Piney, WY: 12/03/2016 15:53
Visibility10 statute milessun with scattered clouds
View 7-Day Forecast
Area Summary
Sky/CloudsScattered at 3900ft
Weather [last 24 hours]None
Pressure30.08 in.Hg (1019 hPa)
Dew Point12 °F (-11.1 °C)
Relative Humidity50.4 %
Temperature28 °F (-2.2 °C)red thermometer
Wind Chill16.5 °F (-8.62 °C)
Reading TimeMinimum to Maximum Temperature
6-hr ending 12/3@10:533 °F to 23 °F (-16.1 °C to -5 °C)
6-hr ending 12/3@04:533 °F to 10 °F (-16.1 °C to -12.2 °C)
6-hr ending 12/2@22:531.9 °F to 21.9 °F (-16.7 °C to -5.6 °C)
6-hr ending 12/2@16:5321 °F to 28 °F (-6.1 °C to -2.2 °C)
24-hr ending 12/2@23:531.9 °F to 28 °F (-16.7 °C to -2.2 °C)
Wind15 MPH (13 KT) green arrow pointing 337.5 degrees
Wind FromNorth/Northwest (340 Degrees)
Rolling 24-hr Peak Wind31.1 MPH (27 KT) on 12/3@12:51
Rolling 24-hr Peak Wind FromNorth (360 Degrees)
Twilight Begins07:01Sunshine Yesterday
Sunrise07:32N/A
Sunset16:49
Twilight Ends17:21
METARKBPI 032253Z AUTO 34013KT 10SM SCT039 M02/M11 A3008 RMK AO2 SLP229 T10221111
Tags: